createdAt,value
2023-03-02T00:01:58.495Z,21.40
2023-03-02T00:04:33.423Z,19.40
2023-03-02T00:07:05.772Z,19.47
2023-03-02T00:09:34.325Z,21.93
2023-03-02T00:12:02.807Z,19.83
2023-03-02T00:14:31.219Z,18.40
2023-03-02T00:17:02.757Z,18.90
2023-03-02T00:19:31.090Z,17.87
2023-03-02T00:21:59.456Z,17.40
2023-03-02T00:24:27.787Z,18.17
2023-03-02T00:26:56.266Z,17.37
2023-03-02T00:29:24.596Z,18.03
2023-03-02T00:31:53.070Z,18.83
2023-03-02T00:34:22.966Z,18.17
2023-03-02T00:36:51.355Z,18.50
2023-03-02T00:39:20.109Z,19.43
2023-03-02T00:41:49.590Z,18.73
2023-03-02T00:44:18.686Z,18.37
2023-03-02T00:46:47.347Z,19.23
2023-03-02T00:49:15.772Z,19.17
2023-03-02T00:51:45.545Z,18.30
2023-03-02T00:54:14.294Z,18.13
2023-03-02T00:56:42.910Z,17.67
2023-03-02T00:59:26.716Z,17.07
2023-03-02T01:01:58.211Z,18.00
2023-03-02T01:04:29.762Z,19.37
2023-03-02T01:07:01.459Z,20.60
2023-03-02T01:09:30.060Z,19.90
2023-03-02T01:11:59.674Z,19.97
2023-03-02T01:14:28.702Z,19.97
2023-03-02T01:16:57.038Z,19.87
2023-03-02T01:19:25.761Z,21.87
2023-03-02T01:21:54.092Z,20.77
2023-03-02T01:24:23.937Z,21.03
2023-03-02T01:26:52.293Z,20.30
2023-03-02T01:29:21.012Z,20.33
2023-03-02T01:31:49.597Z,21.17
2023-03-02T01:34:18.064Z,21.67
2023-03-02T01:36:46.674Z,21.33
2023-03-02T01:39:16.201Z,20.00
2023-03-02T01:41:47.514Z,21.37
2023-03-02T01:44:42.103Z,22.57
2023-03-02T01:47:19.558Z,22.07
2023-03-02T01:49:52.284Z,22.67
2023-03-02T01:52:21.466Z,21.73
2023-03-02T01:54:51.741Z,21.97
2023-03-02T01:57:29.636Z,21.07
2023-03-02T02:00:08.581Z,23.17
2023-03-02T02:02:41.943Z,22.40
2023-03-02T02:05:11.212Z,23.70
2023-03-02T02:07:40.146Z,22.90
2023-03-02T02:10:11.212Z,22.47
2023-03-02T02:12:41.147Z,23.40
2023-03-02T02:15:10.819Z,23.83
2023-03-02T02:17:39.184Z,24.63
2023-03-02T02:20:24.070Z,23.83
2023-03-02T02:23:07.552Z,25.07
2023-03-02T02:25:47.237Z,23.33
2023-03-02T02:28:23.676Z,24.23
2023-03-02T02:31:03.564Z,23.63
2023-03-02T02:33:33.670Z,23.17
2023-03-02T02:36:09.346Z,22.47
2023-03-02T02:38:39.679Z,22.73
2023-03-02T02:41:14.299Z,21.97
2023-03-02T02:43:44.032Z,24.17
2023-03-02T02:46:14.017Z,25.20
2023-03-02T02:48:42.320Z,24.90
2023-03-02T02:51:19.300Z,24.70
2023-03-02T02:53:59.862Z,25.33
2023-03-02T02:56:32.602Z,24.60
2023-03-02T02:59:07.176Z,26.13
2023-03-02T03:01:36.308Z,25.03
2023-03-02T03:04:07.656Z,24.10
2023-03-02T03:06:42.658Z,23.97
2023-03-02T03:09:12.665Z,25.13
2023-03-02T03:11:43.949Z,27.00
2023-03-02T03:14:17.508Z,26.73
2023-03-02T03:16:48.428Z,26.23
2023-03-02T03:19:22.594Z,27.57
2023-03-02T03:21:53.567Z,27.00
2023-03-02T03:24:22.857Z,27.93
2023-03-02T03:26:51.873Z,28.47
2023-03-02T03:29:24.288Z,26.43
2023-03-02T03:31:53.424Z,27.27
2023-03-02T03:34:22.450Z,27.70
2023-03-02T03:36:50.801Z,27.83
2023-03-02T03:39:20.704Z,27.70
2023-03-02T03:41:49.016Z,29.60
2023-03-02T03:44:17.292Z,29.43
2023-03-02T03:46:47.109Z,28.53
2023-03-02T03:49:15.500Z,29.50
2023-03-02T03:51:43.794Z,30.23
2023-03-02T03:54:12.848Z,28.77
2023-03-02T03:56:44.928Z,27.20
2023-03-02T03:59:17.294Z,29.30
2023-03-02T04:01:50.451Z,30.47
2023-03-02T04:04:22.456Z,28.43
2023-03-02T04:06:51.390Z,32.77
2023-03-02T04:09:19.915Z,33.17
2023-03-02T04:11:54.762Z,33.50
2023-03-02T04:14:25.224Z,31.20
2023-03-02T04:16:55.309Z,34.73
2023-03-02T04:19:24.635Z,34.03
2023-03-02T04:21:55.994Z,31.77
2023-03-02T04:24:24.935Z,31.63
2023-03-02T04:26:53.661Z,34.60
2023-03-02T04:29:23.355Z,32.77
2023-03-02T04:31:51.943Z,36.63
2023-03-02T04:34:21.935Z,33.17
2023-03-02T04:36:50.270Z,36.67
2023-03-02T04:39:20.183Z,34.60
2023-03-02T04:41:50.384Z,32.77
2023-03-02T04:44:19.595Z,35.70
2023-03-02T04:46:49.099Z,36.70
2023-03-02T04:49:19.460Z,37.07
2023-03-02T04:51:51.252Z,36.57
2023-03-02T04:54:22.494Z,37.37
2023-03-02T04:56:51.697Z,33.70
2023-03-02T04:59:22.429Z,30.40
2023-03-02T05:01:51.444Z,34.50
2023-03-02T05:04:19.940Z,30.80
2023-03-02T05:06:49.707Z,31.83
2023-03-02T05:09:18.576Z,32.10
2023-03-02T05:11:46.991Z,34.73
2023-03-02T05:14:15.451Z,31.73
2023-03-02T05:16:43.890Z,36.73
2023-03-02T05:19:13.498Z,36.73
2023-03-02T05:21:42.825Z,34.17
2023-03-02T05:24:13.585Z,32.07
2023-03-02T05:26:42.778Z,32.60
2023-03-02T05:29:11.133Z,34.00
2023-03-02T05:31:42.174Z,32.20
2023-03-02T05:34:14.171Z,31.30
2023-03-02T05:36:42.537Z,30.93
2023-03-02T05:39:12.676Z,31.27
2023-03-02T05:41:42.428Z,32.73
2023-03-02T05:44:12.527Z,32.73
2023-03-02T05:46:41.234Z,31.77
2023-03-02T05:49:10.676Z,31.87
2023-03-02T05:51:39.012Z,34.50
2023-03-02T05:54:07.377Z,29.00
2023-03-02T05:56:37.196Z,30.77
2023-03-02T05:59:05.520Z,29.67
2023-03-02T06:01:34.249Z,29.03
2023-03-02T06:04:02.842Z,27.03
2023-03-02T06:06:33.862Z,27.33
2023-03-02T06:09:02.548Z,30.97
2023-03-02T06:11:31.034Z,29.70
2023-03-02T06:14:00.794Z,31.47
2023-03-02T06:16:29.162Z,28.90
2023-03-02T06:18:57.523Z,33.07
2023-03-02T06:21:25.914Z,28.63
2023-03-02T06:23:54.328Z,32.10
2023-03-02T06:26:22.652Z,29.33
2023-03-02T06:28:53.583Z,28.10
2023-03-02T06:31:23.939Z,31.03
2023-03-02T06:33:52.580Z,28.07
2023-03-02T06:36:21.391Z,28.50
2023-03-02T06:38:49.973Z,29.50
2023-03-02T06:41:18.329Z,28.33
2023-03-02T06:43:46.695Z,29.43
2023-03-02T06:46:15.228Z,30.83
2023-03-02T06:48:45.049Z,32.93
2023-03-02T06:51:13.793Z,30.73
2023-03-02T06:53:42.162Z,29.37
2023-03-02T06:56:10.890Z,33.77
2023-03-02T06:58:39.306Z,30.83
2023-03-02T07:01:08.950Z,36.20
2023-03-02T07:03:37.710Z,30.40
2023-03-02T07:06:08.025Z,28.07
2023-03-02T07:08:36.424Z,33.90
2023-03-02T07:11:07.568Z,31.53
2023-03-02T07:13:37.987Z,30.87
2023-03-02T07:16:09.657Z,30.60
2023-03-02T07:18:38.019Z,29.33
2023-03-02T07:21:07.952Z,29.60
2023-03-02T07:23:37.344Z,28.77
2023-03-02T07:26:08.541Z,31.40
2023-03-02T07:28:39.739Z,31.53
2023-03-02T07:31:09.188Z,29.40
2023-03-02T07:33:38.616Z,32.87
2023-03-02T07:36:10.008Z,27.93
2023-03-02T07:38:39.995Z,29.83
2023-03-02T07:41:09.912Z,30.13
2023-03-02T07:43:38.825Z,32.53
2023-03-02T07:46:07.570Z,28.53
2023-03-02T07:48:36.181Z,28.10
2023-03-02T07:51:07.656Z,29.80
2023-03-02T07:53:36.204Z,28.63
2023-03-02T07:56:08.940Z,27.00
2023-03-02T07:58:38.024Z,27.20
2023-03-02T08:01:06.807Z,27.00
2023-03-02T08:03:35.191Z,27.30
2023-03-02T08:06:09.928Z,27.00
2023-03-02T08:08:38.821Z,27.30
2023-03-02T08:11:09.047Z,26.70
2023-03-02T08:13:37.492Z,28.27
2023-03-02T08:16:09.153Z,27.23
2023-03-02T08:18:38.112Z,25.50
2023-03-02T08:21:15.018Z,23.47
2023-03-02T08:23:43.455Z,23.53
2023-03-02T08:26:14.772Z,25.23
2023-03-02T08:28:44.925Z,25.67
2023-03-02T08:31:14.717Z,26.87
2023-03-02T08:33:43.610Z,23.50
2023-03-02T08:36:16.716Z,25.70
2023-03-02T08:38:45.746Z,23.30
2023-03-02T08:41:17.252Z,25.80
2023-03-02T08:43:45.574Z,25.00
2023-03-02T08:46:17.141Z,24.30
2023-03-02T08:48:46.120Z,24.27
2023-03-02T08:51:18.298Z,24.80
2023-03-02T08:53:50.450Z,22.70
2023-03-02T08:56:21.950Z,21.97
2023-03-02T08:58:51.478Z,21.60
2023-03-02T09:01:22.414Z,19.63
2023-03-02T09:03:50.781Z,21.10
2023-03-02T09:06:20.603Z,20.13
2023-03-02T09:08:49.647Z,20.80
2023-03-02T09:11:18.052Z,19.83
2023-03-02T09:13:46.595Z,19.47
2023-03-02T09:16:16.061Z,20.50
2023-03-02T09:18:44.589Z,18.77
2023-03-02T09:21:12.888Z,18.60
2023-03-02T09:23:42.600Z,17.83
2023-03-02T09:26:11.058Z,18.90
2023-03-02T09:28:39.908Z,19.27
2023-03-02T09:31:09.843Z,19.20
2023-03-02T09:33:38.675Z,18.43
2023-03-02T09:36:08.469Z,19.73
2023-03-02T09:38:36.824Z,18.33
2023-03-02T09:41:44.524Z,18.03
2023-03-02T09:44:33.830Z,16.70
2023-03-02T09:47:06.650Z,16.73
2023-03-02T09:49:54.975Z,18.20
2023-03-02T09:52:32.645Z,16.77
2023-03-02T09:55:12.717Z,17.60
2023-03-02T09:57:43.208Z,16.73
2023-03-02T10:00:19.917Z,16.97
2023-03-02T10:02:52.492Z,17.97
2023-03-02T10:05:26.390Z,18.37
2023-03-02T10:07:57.850Z,16.93
2023-03-02T10:10:35.470Z,16.90
2023-03-02T10:13:23.808Z,17.33
2023-03-02T10:16:07.707Z,17.67
2023-03-02T10:18:41.569Z,15.37
2023-03-02T10:21:22.140Z,14.17
2023-03-02T10:23:57.800Z,14.27
2023-03-02T10:26:40.687Z,13.77
2023-03-02T10:29:40.862Z,13.60
2023-03-02T10:32:21.124Z,13.63
2023-03-02T10:34:51.136Z,13.20
2023-03-02T10:37:25.283Z,11.97
2023-03-02T10:39:53.774Z,12.53
2023-03-02T10:42:27.415Z,14.20
2023-03-02T10:45:04.432Z,13.83
2023-03-02T10:47:32.858Z,14.50
2023-03-02T10:50:01.204Z,13.70
2023-03-02T10:52:30.579Z,12.90
2023-03-02T10:55:08.404Z,14.07
2023-03-02T10:57:39.896Z,12.97
2023-03-02T11:00:22.923Z,14.57
2023-03-02T11:02:54.038Z,12.93
2023-03-02T11:05:31.396Z,12.77
2023-03-02T11:08:02.757Z,14.67
2023-03-02T11:10:34.376Z,13.03
2023-03-02T11:13:07.598Z,13.33
2023-03-02T11:15:46.188Z,12.27
2023-03-02T11:18:26.507Z,12.83
2023-03-02T11:21:00.597Z,12.93
2023-03-02T11:23:41.200Z,11.77
2023-03-02T11:26:17.077Z,13.17
2023-03-02T11:28:55.972Z,12.60
2023-03-02T11:31:35.277Z,11.87
2023-03-02T11:34:27.443Z,12.97
2023-03-02T11:37:18.725Z,12.40
2023-03-02T11:40:06.228Z,13.40
2023-03-02T11:42:38.248Z,13.47
2023-03-02T11:45:21.675Z,12.47
2023-03-02T11:48:02.488Z,12.07
2023-03-02T11:50:33.020Z,13.53
2023-03-02T11:53:05.444Z,12.70
2023-03-02T11:55:40.864Z,14.07
2023-03-02T11:58:14.382Z,12.73
2023-03-02T12:00:44.305Z,14.20
2023-03-02T12:03:40.040Z,13.20
2023-03-02T12:06:28.642Z,13.33
2023-03-02T12:09:13.172Z,12.47
2023-03-02T12:11:42.620Z,13.57
2023-03-02T12:14:29.844Z,12.17
2023-03-02T12:17:08.556Z,11.17
2023-03-02T12:19:45.333Z,12.23
2023-03-02T12:22:14.678Z,11.63
2023-03-02T12:24:45.728Z,11.97
2023-03-02T12:27:28.866Z,11.77
2023-03-02T12:30:12.476Z,11.33
2023-03-02T12:32:40.873Z,10.93
2023-03-02T12:35:17.178Z,11.57
2023-03-02T12:37:49.792Z,10.03
2023-03-02T12:40:41.195Z,10.93
2023-03-02T12:43:28.084Z,9.73
2023-03-02T12:46:29.658Z,11.20
2023-03-02T12:49:28.673Z,10.50
2023-03-02T12:52:02.923Z,10.77
2023-03-02T12:54:34.312Z,10.30
2023-03-02T12:57:09.166Z,10.47
2023-03-02T12:59:38.187Z,10.63
2023-03-02T13:02:18.492Z,11.00
2023-03-02T13:04:54.050Z,10.80
2023-03-02T13:07:27.838Z,11.13
2023-03-02T13:09:59.162Z,11.53
2023-03-02T13:12:29.990Z,11.67
2023-03-02T13:15:00.662Z,11.60
2023-03-02T13:17:31.821Z,10.73
2023-03-02T13:20:02.346Z,10.13
2023-03-02T13:22:32.363Z,10.60
2023-03-02T13:25:05.367Z,10.00
2023-03-02T13:27:34.023Z,11.17
2023-03-02T13:30:21.124Z,11.07
2023-03-02T13:32:51.013Z,10.20
2023-03-02T13:35:26.376Z,10.27
2023-03-02T13:38:06.109Z,10.77
2023-03-02T13:40:44.909Z,10.47
2023-03-02T13:43:36.824Z,10.63
2023-03-02T13:46:24.700Z,11.07
2023-03-02T13:49:09.218Z,10.60
2023-03-02T13:51:42.036Z,11.90
2023-03-02T13:54:23.078Z,11.33
2023-03-02T13:56:53.721Z,10.83
2023-03-02T13:59:23.489Z,10.30
2023-03-02T14:01:52.570Z,10.00
2023-03-02T14:04:24.357Z,11.20
2023-03-02T14:06:54.870Z,10.97
2023-03-02T14:09:27.205Z,11.37
2023-03-02T14:11:58.194Z,10.63
2023-03-02T14:14:30.167Z,10.60
2023-03-02T14:16:58.741Z,11.27
2023-03-02T14:19:27.202Z,11.13
2023-03-02T14:21:55.589Z,11.20
2023-03-02T14:24:26.634Z,11.10
2023-03-02T14:26:54.922Z,10.73
2023-03-02T14:29:27.290Z,10.17
2023-03-02T14:31:56.799Z,10.20
2023-03-02T14:34:25.484Z,9.97
2023-03-02T14:36:56.138Z,10.27
2023-03-02T14:39:38.507Z,10.33
2023-03-02T14:42:11.326Z,9.43
2023-03-02T14:44:39.738Z,9.30
2023-03-02T14:47:10.070Z,9.00
2023-03-02T14:49:39.052Z,9.37
2023-03-02T14:52:13.844Z,10.87
2023-03-02T14:54:48.271Z,9.57
2023-03-02T14:57:21.657Z,9.90
2023-03-02T14:59:50.606Z,10.33
2023-03-02T15:02:25.761Z,10.90
2023-03-02T15:04:57.170Z,9.83
2023-03-02T15:07:27.994Z,10.63
2023-03-02T15:09:58.801Z,10.50
2023-03-02T15:12:27.307Z,10.53
2023-03-02T15:14:55.590Z,10.10
2023-03-02T15:17:24.016Z,9.90
2023-03-02T15:19:52.333Z,10.80
2023-03-02T15:22:21.570Z,10.53
2023-03-02T15:24:49.905Z,10.20
2023-03-02T15:27:19.612Z,10.83
2023-03-02T15:29:48.561Z,10.27
2023-03-02T15:32:17.729Z,9.70
2023-03-02T15:34:46.180Z,10.80
2023-03-02T15:37:14.541Z,10.00
2023-03-02T15:39:44.444Z,10.20
2023-03-02T15:42:14.075Z,10.60
2023-03-02T15:44:43.804Z,10.30
2023-03-02T15:47:12.812Z,9.80
2023-03-02T15:49:41.291Z,9.50
2023-03-02T15:52:09.987Z,9.57
2023-03-02T15:54:38.284Z,9.60
2023-03-02T15:57:07.868Z,10.33
2023-03-02T15:59:36.687Z,10.40
2023-03-02T16:02:06.745Z,10.63
2023-03-02T16:04:35.333Z,9.30
2023-03-02T16:07:04.217Z,10.03
2023-03-02T16:09:32.771Z,10.97
2023-03-02T16:12:01.590Z,11.07
2023-03-02T16:14:29.872Z,12.20
2023-03-02T16:16:58.383Z,10.83
2023-03-02T16:19:28.105Z,11.07
2023-03-02T16:21:56.437Z,11.47
2023-03-02T16:24:25.451Z,10.93
2023-03-02T16:26:54.877Z,11.03
2023-03-02T16:29:24.331Z,11.13
2023-03-02T16:31:52.917Z,10.57
2023-03-02T16:34:21.318Z,10.23
2023-03-02T16:36:51.133Z,10.40
2023-03-02T16:39:19.512Z,10.20
2023-03-02T16:41:47.813Z,9.70
2023-03-02T16:44:16.271Z,10.23
2023-03-02T16:46:44.963Z,9.67
2023-03-02T16:49:14.460Z,10.03
2023-03-02T16:51:44.109Z,9.47
2023-03-02T16:54:17.543Z,9.20
2023-03-02T16:56:47.434Z,9.60
2023-03-02T16:59:16.043Z,9.37
2023-03-02T17:01:44.585Z,8.27
2023-03-02T17:04:13.123Z,9.33
2023-03-02T17:07:03.681Z,8.60
2023-03-02T17:09:44.226Z,8.53
2023-03-02T17:12:12.627Z,8.87
2023-03-02T17:14:41.123Z,9.30
2023-03-02T17:17:09.640Z,8.60
2023-03-02T17:19:38.116Z,9.30
2023-03-02T17:22:06.479Z,8.93
2023-03-02T17:24:36.466Z,9.43
2023-03-02T17:27:13.059Z,8.87
2023-03-02T17:29:47.474Z,9.43
2023-03-02T17:32:15.835Z,10.03
2023-03-02T17:34:44.267Z,9.97
2023-03-02T17:37:12.754Z,10.93
2023-03-02T17:39:42.966Z,11.40
2023-03-02T17:42:11.258Z,11.87
2023-03-02T17:44:40.349Z,12.70
2023-03-02T17:47:09.025Z,12.87
2023-03-02T17:49:40.399Z,13.23
2023-03-02T17:52:08.978Z,14.30
2023-03-02T17:54:37.311Z,14.73
2023-03-02T17:57:07.053Z,14.07
2023-03-02T17:59:35.614Z,15.90
2023-03-02T18:02:04.084Z,16.67
2023-03-02T18:04:32.475Z,15.87
2023-03-02T18:07:01.662Z,16.93
2023-03-02T18:09:30.048Z,16.97
2023-03-02T18:11:58.452Z,17.43
2023-03-02T18:14:28.502Z,17.60
2023-03-02T18:16:56.881Z,17.93
2023-03-02T18:19:25.233Z,17.43
2023-03-02T18:21:53.828Z,18.30
2023-03-02T18:24:22.154Z,18.67
2023-03-02T18:26:50.898Z,17.37
2023-03-02T18:29:19.241Z,17.30
2023-03-02T18:31:49.701Z,19.63
2023-03-02T18:34:19.784Z,18.00
2023-03-02T18:36:48.908Z,20.23
2023-03-02T18:39:17.354Z,20.00
2023-03-02T18:41:45.713Z,19.00
2023-03-02T18:44:14.015Z,20.70
2023-03-02T18:46:42.378Z,18.57
2023-03-02T18:49:12.184Z,20.83
2023-03-02T18:51:40.578Z,20.27
2023-03-02T18:54:08.966Z,20.57
2023-03-02T18:56:39.074Z,21.63
2023-03-02T18:59:09.532Z,21.23
2023-03-02T19:01:38.120Z,20.33
2023-03-02T19:04:07.084Z,20.77
2023-03-02T19:06:36.923Z,21.67
2023-03-02T19:09:05.377Z,22.80
2023-03-02T19:11:33.765Z,21.37
2023-03-02T19:14:02.239Z,21.83
2023-03-02T19:16:30.659Z,21.63
2023-03-02T19:18:59.292Z,23.17
2023-03-02T19:21:27.726Z,21.53
2023-03-02T19:23:57.494Z,22.57
2023-03-02T19:26:25.953Z,23.93
2023-03-02T19:28:55.070Z,22.30
2023-03-02T19:31:23.644Z,23.07
2023-03-02T19:33:52.074Z,23.83
2023-03-02T19:36:20.615Z,21.97
2023-03-02T19:38:48.887Z,22.93
2023-03-02T19:41:20.406Z,24.00
2023-03-02T19:43:49.369Z,23.00
2023-03-02T19:46:19.132Z,22.03
2023-03-02T19:48:47.538Z,21.70
2023-03-02T19:51:17.388Z,22.37
2023-03-02T19:53:47.137Z,21.80
2023-03-02T19:56:18.499Z,21.30
2023-03-02T19:58:53.538Z,21.27
2023-03-02T20:01:24.790Z,20.27
2023-03-02T20:03:54.424Z,20.30
2023-03-02T20:06:25.576Z,20.27
2023-03-02T20:08:54.463Z,22.80
2023-03-02T20:11:25.181Z,21.70
2023-03-02T20:13:53.857Z,21.93
2023-03-02T20:16:23.357Z,20.80
2023-03-02T20:18:52.050Z,19.77
2023-03-02T20:21:21.462Z,18.40
2023-03-02T20:23:49.940Z,17.93
2023-03-02T20:26:18.424Z,18.67
2023-03-02T20:28:49.028Z,18.90
2023-03-02T20:31:18.035Z,19.67
2023-03-02T20:33:49.600Z,19.73
2023-03-02T20:36:23.513Z,17.97
2023-03-02T20:38:59.162Z,17.70
2023-03-02T20:41:28.256Z,17.97
2023-03-02T20:43:58.437Z,18.77
2023-03-02T20:46:30.124Z,18.17
2023-03-02T20:48:59.221Z,19.17
2023-03-02T20:51:28.855Z,18.50
2023-03-02T20:53:57.631Z,18.73
2023-03-02T20:56:26.752Z,19.23
2023-03-02T20:58:55.387Z,18.87
2023-03-02T21:01:25.970Z,19.47
2023-03-02T21:03:54.445Z,19.40
2023-03-02T21:06:23.036Z,18.90
2023-03-02T21:08:52.601Z,20.33
2023-03-02T21:11:22.398Z,19.63
2023-03-02T21:13:51.150Z,19.10
2023-03-02T21:16:23.593Z,19.33
2023-03-02T21:18:55.203Z,18.27
2023-03-02T21:21:40.387Z,18.50
2023-03-02T21:24:11.121Z,19.37
2023-03-02T21:26:41.617Z,18.73
2023-03-02T21:29:12.183Z,19.07
2023-03-02T21:31:42.296Z,19.03
2023-03-02T21:34:13.638Z,18.50
2023-03-02T21:36:42.259Z,21.30
2023-03-02T21:39:12.486Z,18.73
2023-03-02T21:41:41.172Z,18.20
2023-03-02T21:44:09.540Z,18.33
2023-03-02T21:46:39.536Z,18.40
2023-03-02T21:49:08.774Z,18.83
2023-03-02T21:51:38.505Z,18.33
2023-03-02T21:54:07.042Z,19.23
2023-03-02T21:56:35.537Z,18.57
2023-03-02T21:59:05.119Z,18.20
2023-03-02T22:01:33.888Z,18.23
2023-03-02T22:04:02.705Z,18.60
2023-03-02T22:06:33.655Z,19.47
2023-03-02T22:09:03.910Z,18.77
2023-03-02T22:11:36.018Z,19.17
2023-03-02T22:14:12.626Z,19.40
2023-03-02T22:16:43.281Z,19.23
2023-03-02T22:19:26.465Z,19.53
2023-03-02T22:21:56.150Z,20.33
2023-03-02T22:24:28.804Z,18.30
2023-03-02T22:27:01.816Z,19.77
2023-03-02T22:29:33.887Z,19.23
2023-03-02T22:32:19.447Z,19.77
2023-03-02T22:34:49.622Z,19.37
2023-03-02T22:37:19.766Z,18.80
2023-03-02T22:39:51.040Z,19.50
2023-03-02T22:42:22.115Z,20.43
2023-03-02T22:45:03.836Z,19.30
2023-03-02T22:47:32.412Z,19.53
2023-03-02T22:50:07.746Z,20.07
2023-03-02T22:52:41.895Z,20.30
2023-03-02T22:55:36.426Z,19.33
2023-03-02T22:58:46.769Z,18.33
2023-03-02T23:01:22.797Z,18.03
2023-03-02T23:03:53.820Z,20.53
2023-03-02T23:06:31.505Z,20.07
2023-03-02T23:09:02.674Z,19.47
2023-03-02T23:11:40.983Z,20.00
2023-03-02T23:14:20.232Z,20.00
2023-03-02T23:16:56.483Z,20.37
2023-03-02T23:19:26.517Z,19.57
2023-03-02T23:21:55.368Z,19.67
2023-03-02T23:24:23.962Z,19.10
2023-03-02T23:26:54.264Z,22.53
2023-03-02T23:29:23.224Z,22.73
2023-03-02T23:31:52.071Z,21.93
2023-03-02T23:34:21.573Z,22.60
2023-03-02T23:36:50.004Z,21.70
2023-03-02T23:39:18.698Z,22.87
2023-03-02T23:41:47.309Z,20.43
2023-03-02T23:44:19.374Z,21.23
2023-03-02T23:46:48.620Z,20.80
2023-03-02T23:49:17.961Z,19.73
2023-03-02T23:51:46.519Z,21.00
2023-03-02T23:54:16.009Z,18.60
2023-03-02T23:56:44.953Z,20.97
2023-03-02T23:59:13.355Z,19.60
